createdAt,value
2018-04-17T00:00:35.073Z,12.03
2018-04-17T00:03:02.656Z,12.04
2018-04-17T00:05:30.226Z,12.07
2018-04-17T00:07:57.913Z,12.05
2018-04-17T00:10:25.869Z,12.05
2018-04-17T00:12:53.461Z,12.04
2018-04-17T00:15:21.172Z,12.05
2018-04-17T00:17:48.756Z,12.12
2018-04-17T00:20:16.336Z,12.18
2018-04-17T00:22:44.924Z,12.27
2018-04-17T00:25:12.569Z,12.35
2018-04-17T00:27:40.379Z,12.41
2018-04-17T00:30:08.185Z,12.41
2018-04-17T00:32:35.776Z,12.45
2018-04-17T00:35:03.352Z,12.51
2018-04-17T00:37:31.144Z,12.59
2018-04-17T00:39:58.732Z,12.66
2018-04-17T00:42:26.327Z,12.70
2018-04-17T00:44:54.021Z,12.73
2018-04-17T00:47:21.604Z,12.71
2018-04-17T00:49:49.179Z,12.68
2018-04-17T00:52:16.875Z,12.65
2018-04-17T00:54:44.556Z,12.65
2018-04-17T00:57:12.201Z,12.73
2018-04-17T00:59:39.846Z,12.74
2018-04-17T01:02:07.491Z,12.83
2018-04-17T01:04:35.148Z,12.87
2018-04-17T01:07:02.924Z,13.01
2018-04-17T01:09:30.508Z,13.14
2018-04-17T01:11:58.087Z,13.12
2018-04-17T01:14:25.919Z,13.05
2018-04-17T01:16:53.573Z,13.05
2018-04-17T01:19:21.212Z,13.04
2018-04-17T01:21:48.848Z,13.05
2018-04-17T01:24:16.553Z,13.04
2018-04-17T01:26:44.143Z,13.07
2018-04-17T01:29:11.841Z,13.04
2018-04-17T01:31:39.480Z,13.03
2018-04-17T01:34:07.214Z,13.04
2018-04-17T01:36:34.894Z,13.04
2018-04-17T01:39:02.538Z,12.98
2018-04-17T01:41:30.128Z,12.99
2018-04-17T01:43:57.996Z,12.93
2018-04-17T01:46:25.586Z,12.90
2018-04-17T01:48:53.179Z,12.98
2018-04-17T01:51:20.979Z,13.29
2018-04-17T01:53:48.574Z,13.88
2018-04-17T01:56:16.266Z,14.31
2018-04-17T01:58:44.006Z,14.44
2018-04-17T02:01:11.657Z,14.73
2018-04-17T02:03:39.280Z,15.03
2018-04-17T02:06:07.010Z,15.17
2018-04-17T02:08:34.586Z,15.32
2018-04-17T02:11:02.196Z,15.49
2018-04-17T02:13:29.916Z,15.63
2018-04-17T02:15:57.496Z,15.82
2018-04-17T02:18:25.138Z,15.82
2018-04-17T02:20:52.822Z,15.72
2018-04-17T02:23:20.523Z,14.99
2018-04-17T02:25:48.318Z,14.76
2018-04-17T02:30:49.869Z,14.43
2018-04-17T02:33:17.541Z,14.38
2018-04-17T02:35:45.155Z,14.33
2018-04-17T02:38:12.904Z,14.30
2018-04-17T02:40:40.782Z,14.28
2018-04-17T02:43:08.509Z,14.29
2018-04-17T02:45:36.105Z,14.24
2018-04-17T02:48:03.776Z,13.77
2018-04-17T02:50:31.388Z,13.67
2018-04-17T02:52:59.003Z,13.62
2018-04-17T02:55:26.724Z,13.42
2018-04-17T02:57:54.328Z,13.27
2018-04-17T03:00:21.972Z,13.15
2018-04-17T03:02:49.661Z,13.08
2018-04-17T03:05:17.332Z,13.00
2018-04-17T03:07:44.992Z,12.90
2018-04-17T03:10:12.705Z,12.83
2018-04-17T03:12:40.370Z,12.74
2018-04-17T03:15:08.062Z,12.73
2018-04-17T03:17:35.915Z,12.75
2018-04-17T03:20:03.629Z,12.70
2018-04-17T03:22:31.386Z,12.66
2018-04-17T03:24:59.141Z,12.71
2018-04-17T03:27:27.744Z,12.75
2018-04-17T03:29:55.479Z,12.78
2018-04-17T03:32:23.221Z,12.79
2018-04-17T03:34:50.818Z,12.80
2018-04-17T03:37:18.445Z,12.82
2018-04-17T03:39:46.080Z,12.82
2018-04-17T03:42:13.757Z,12.82
2018-04-17T03:44:42.121Z,12.83
2018-04-17T03:47:09.804Z,12.83
2018-04-17T03:49:37.446Z,12.84
2018-04-17T03:52:05.668Z,12.86
2018-04-17T03:54:33.359Z,12.89
2018-04-17T03:57:01.704Z,12.94
2018-04-17T03:59:29.280Z,12.96
2018-04-17T04:01:56.956Z,12.99
2018-04-17T04:04:24.591Z,13.00
2018-04-17T04:06:52.194Z,12.83
2018-04-17T04:09:19.990Z,12.76
2018-04-17T04:11:47.649Z,12.68
2018-04-17T04:14:15.233Z,12.63
2018-04-17T04:16:54.728Z,12.65
2018-04-17T04:19:33.924Z,12.64
2018-04-17T04:22:13.328Z,12.70
2018-04-17T04:24:52.616Z,12.64
2018-04-17T04:27:20.395Z,12.68
2018-04-17T04:29:48.684Z,12.76
2018-04-17T04:32:16.259Z,12.78
2018-04-17T04:34:43.899Z,12.75
2018-04-17T04:37:12.239Z,12.66
2018-04-17T04:39:39.874Z,12.71
2018-04-17T04:42:07.583Z,12.76
2018-04-17T04:44:35.185Z,12.78
2018-04-17T04:47:02.767Z,12.75
2018-04-17T04:49:30.407Z,12.75
2018-04-17T04:51:58.049Z,12.74
2018-04-17T04:54:25.613Z,12.77
2018-04-17T04:56:53.324Z,12.80
2018-04-17T04:59:20.903Z,12.84
2018-04-17T05:01:48.491Z,12.87
2018-04-17T05:04:16.124Z,12.95
2018-04-17T05:06:43.760Z,13.06
2018-04-17T05:09:11.896Z,13.17
2018-04-17T05:11:39.532Z,13.29
2018-04-17T05:14:07.155Z,13.41
2018-04-17T05:16:35.018Z,13.51
2018-04-17T05:19:02.742Z,13.59
2018-04-17T05:21:30.315Z,13.64
2018-04-17T05:23:57.920Z,13.71
2018-04-17T05:26:25.643Z,13.79
2018-04-17T05:28:53.224Z,13.87
2018-04-17T05:31:20.891Z,13.93
2018-04-17T05:33:48.499Z,14.00
2018-04-17T05:36:16.079Z,14.03
2018-04-17T05:38:43.724Z,14.10
2018-04-17T05:41:11.444Z,14.17
2018-04-17T05:43:39.032Z,14.12
2018-04-17T05:46:06.672Z,13.85
2018-04-17T05:48:34.323Z,13.84
2018-04-17T05:51:01.924Z,13.70
2018-04-17T05:53:29.501Z,13.61
2018-04-17T05:55:57.206Z,13.63
2018-04-17T05:58:24.759Z,13.70
2018-04-17T06:00:52.340Z,13.76
2018-04-17T06:03:19.973Z,13.76
2018-04-17T06:05:47.878Z,13.89
2018-04-17T06:08:15.517Z,14.24
2018-04-17T06:10:43.180Z,14.64
2018-04-17T06:13:11.459Z,14.60
2018-04-17T06:15:39.888Z,14.08
2018-04-17T06:18:07.615Z,13.62
2018-04-17T06:20:35.220Z,13.24
2018-04-17T06:23:02.820Z,13.17
2018-04-17T06:25:30.574Z,13.31
2018-04-17T06:27:58.240Z,13.47
2018-04-17T06:30:25.847Z,13.51
2018-04-17T06:32:53.725Z,13.49
2018-04-17T06:35:21.344Z,13.49
2018-04-17T06:37:48.942Z,13.49
2018-04-17T06:40:16.652Z,13.56
2018-04-17T06:42:44.243Z,13.62
2018-04-17T06:45:11.885Z,13.70
2018-04-17T06:47:39.629Z,13.74
2018-04-17T06:50:07.173Z,13.57
2018-04-17T06:52:34.826Z,13.63
2018-04-17T06:55:02.460Z,13.58
2018-04-17T06:57:30.114Z,13.53
2018-04-17T06:59:57.700Z,13.58
2018-04-17T07:02:25.324Z,13.60
2018-04-17T07:04:52.967Z,13.55
2018-04-17T07:07:20.548Z,13.53
2018-04-17T07:09:48.262Z,13.62
2018-04-17T07:12:16.388Z,13.69
2018-04-17T07:14:44.063Z,13.79
2018-04-17T07:17:11.700Z,14.00
2018-04-17T07:19:39.337Z,14.13
2018-04-17T07:22:07.918Z,14.25
2018-04-17T07:24:35.632Z,14.40
2018-04-17T07:27:03.216Z,14.58
2018-04-17T07:29:30.820Z,14.64
2018-04-17T07:31:59.304Z,14.80
2018-04-17T07:34:26.936Z,14.96
2018-04-17T07:36:54.577Z,15.13
2018-04-17T07:39:22.251Z,15.28
2018-04-17T07:41:50.524Z,15.25
2018-04-17T07:44:18.200Z,15.31
2018-04-17T07:46:46.081Z,15.35
2018-04-17T07:49:13.728Z,15.44
2018-04-17T07:51:41.300Z,15.59
2018-04-17T07:54:08.937Z,15.73
2018-04-17T07:56:36.580Z,15.91
2018-04-17T07:59:04.241Z,16.05
2018-04-17T08:01:31.952Z,15.91
2018-04-17T08:03:59.601Z,15.79
2018-04-17T08:06:27.207Z,15.74
2018-04-17T08:08:54.934Z,15.35
2018-04-17T08:11:22.596Z,15.37
2018-04-17T08:13:50.223Z,15.43
2018-04-17T08:16:17.858Z,15.46
2018-04-17T08:18:45.437Z,15.12
2018-04-17T08:21:13.019Z,14.71
2018-04-17T08:23:40.742Z,14.79
2018-04-17T08:26:08.335Z,14.76
2018-04-17T08:28:36.004Z,14.62
2018-04-17T08:31:03.800Z,14.65
2018-04-17T08:33:31.388Z,14.61
2018-04-17T08:35:59.325Z,14.42
2018-04-17T08:38:26.973Z,14.45
2018-04-17T08:40:54.616Z,14.66
2018-04-17T08:43:22.265Z,14.88
2018-04-17T08:45:49.949Z,15.10
2018-04-17T08:48:17.593Z,15.45
2018-04-17T08:50:45.187Z,15.84
2018-04-17T08:53:12.811Z,16.24
2018-04-17T08:55:40.404Z,16.38
2018-04-17T08:58:08.065Z,16.61
2018-04-17T09:00:35.776Z,17.07
2018-04-17T09:03:03.429Z,17.33
2018-04-17T09:05:31.052Z,17.70
2018-04-17T09:07:58.691Z,17.79
2018-04-17T09:10:26.277Z,17.92
2018-04-17T09:12:53.876Z,18.36
2018-04-17T09:15:21.577Z,18.53
2018-04-17T09:17:49.163Z,18.88
2018-04-17T09:20:16.753Z,18.96
2018-04-17T09:22:44.444Z,18.67
2018-04-17T09:25:12.118Z,18.81
2018-04-17T09:27:39.725Z,18.76
2018-04-17T09:30:07.490Z,19.03
2018-04-17T09:32:35.080Z,19.47
2018-04-17T09:35:02.696Z,19.92
2018-04-17T09:37:30.597Z,19.96
2018-04-17T09:39:58.195Z,19.96
2018-04-17T09:42:25.802Z,20.13
2018-04-17T09:44:53.461Z,20.71
2018-04-17T09:47:21.092Z,20.86
2018-04-17T09:49:48.757Z,21.14
2018-04-17T09:52:16.452Z,20.85
2018-04-17T09:54:44.040Z,20.76
2018-04-17T09:57:11.624Z,20.39
2018-04-17T09:59:39.349Z,20.42
2018-04-17T10:02:06.936Z,20.03
2018-04-17T10:04:34.507Z,19.97
2018-04-17T10:07:02.129Z,19.34
2018-04-17T10:09:29.765Z,19.27
2018-04-17T10:11:57.402Z,19.09
2018-04-17T10:14:25.044Z,19.03
2018-04-17T10:16:52.684Z,18.79
2018-04-17T10:19:20.295Z,18.58
2018-04-17T10:21:48.158Z,18.54
2018-04-17T10:24:15.826Z,18.69
2018-04-17T10:26:43.469Z,18.67
2018-04-17T10:29:11.945Z,18.64
2018-04-17T10:31:39.575Z,18.59
2018-04-17T10:34:07.173Z,18.53
2018-04-17T10:36:34.804Z,18.63
2018-04-17T10:39:02.664Z,18.80
2018-04-17T10:41:30.232Z,18.82
2018-04-17T10:43:57.854Z,18.95
2018-04-17T10:46:25.560Z,18.53
2018-04-17T10:48:53.124Z,18.53
2018-04-17T10:51:20.789Z,18.40
2018-04-17T10:53:48.411Z,18.54
2018-04-17T10:56:15.991Z,18.52
2018-04-17T10:58:43.727Z,18.52
2018-04-17T11:01:11.380Z,18.76
2018-04-17T11:03:38.961Z,18.98
2018-04-17T11:06:07.438Z,19.22
2018-04-17T11:08:35.041Z,19.56
2018-04-17T11:11:02.622Z,19.51
2018-04-17T11:13:30.345Z,19.41
2018-04-17T11:15:58.580Z,19.77
2018-04-17T11:18:26.160Z,19.81
2018-04-17T11:20:53.888Z,19.80
2018-04-17T11:23:21.481Z,20.08
2018-04-17T11:25:49.130Z,20.13
2018-04-17T11:28:16.845Z,20.43
2018-04-17T11:30:44.505Z,20.46
2018-04-17T11:33:12.101Z,20.68
2018-04-17T11:35:39.748Z,21.05
2018-04-17T11:38:07.337Z,21.06
2018-04-17T11:40:35.149Z,21.06
2018-04-17T11:43:02.876Z,20.91
2018-04-17T11:45:30.461Z,20.86
2018-04-17T11:47:58.038Z,20.91
2018-04-17T11:50:25.692Z,20.70
2018-04-17T11:52:53.280Z,20.43
2018-04-17T11:55:20.856Z,20.38
2018-04-17T11:57:48.653Z,20.19
2018-04-17T12:00:16.305Z,20.41
2018-04-17T12:02:43.951Z,20.52
2018-04-17T12:05:11.743Z,20.61
2018-04-17T12:07:39.357Z,20.60
2018-04-17T12:10:06.967Z,20.49
2018-04-17T12:12:34.643Z,20.30
2018-04-17T12:15:02.226Z,20.17
2018-04-17T12:17:29.795Z,20.14
2018-04-17T12:19:57.496Z,20.20
2018-04-17T12:22:25.137Z,20.09
2018-04-17T12:24:52.716Z,19.75
2018-04-17T12:27:20.407Z,19.92
2018-04-17T12:29:48.079Z,20.05
2018-04-17T12:32:15.696Z,20.17
2018-04-17T12:34:43.413Z,20.16
2018-04-17T12:37:10.983Z,20.14
2018-04-17T12:39:38.555Z,19.74
2018-04-17T12:42:06.465Z,19.65
2018-04-17T12:44:34.048Z,19.67
2018-04-17T12:47:01.644Z,19.83
2018-04-17T12:49:29.272Z,20.02
2018-04-17T12:51:56.869Z,20.25
2018-04-17T12:54:24.479Z,20.35
2018-04-17T12:56:52.123Z,20.35
2018-04-17T12:59:19.756Z,20.34
2018-04-17T13:01:47.378Z,20.37
2018-04-17T13:04:15.065Z,20.50
2018-04-17T13:06:42.643Z,20.60
2018-04-17T13:09:10.272Z,20.35
2018-04-17T13:11:37.987Z,20.21
2018-04-17T13:14:05.624Z,20.29
2018-04-17T13:16:33.983Z,20.27
2018-04-17T13:19:01.756Z,20.05
2018-04-17T13:21:29.390Z,19.93
2018-04-17T13:23:56.962Z,19.93
2018-04-17T13:26:24.702Z,19.78
2018-04-17T13:28:53.037Z,19.82
2018-04-17T13:31:20.636Z,19.87
2018-04-17T13:33:48.312Z,19.98
2018-04-17T13:36:15.944Z,20.05
2018-04-17T13:38:43.609Z,20.16
2018-04-17T13:41:11.296Z,20.40
2018-04-17T13:43:39.516Z,20.52
2018-04-17T13:46:07.106Z,20.70
2018-04-17T13:48:34.770Z,20.77
2018-04-17T13:51:02.412Z,20.91
2018-04-17T13:53:29.997Z,20.85
2018-04-17T13:55:57.636Z,20.76
2018-04-17T13:58:25.220Z,20.67
2018-04-17T14:00:52.861Z,20.40
2018-04-17T14:03:20.490Z,20.28
2018-04-17T14:05:48.103Z,20.50
2018-04-17T14:08:15.692Z,20.57
2018-04-17T14:10:43.386Z,20.52
2018-04-17T14:13:10.964Z,20.63
2018-04-17T14:15:38.599Z,20.64
2018-04-17T14:18:06.329Z,20.52
2018-04-17T14:20:33.979Z,20.37
2018-04-17T14:23:01.578Z,20.28
2018-04-17T14:25:29.342Z,20.24
2018-04-17T14:27:56.910Z,20.19
2018-04-17T14:30:24.549Z,19.98
2018-04-17T14:32:52.328Z,20.02
2018-04-17T14:35:19.979Z,20.08
2018-04-17T14:37:47.632Z,20.07
2018-04-17T14:40:15.357Z,20.06
2018-04-17T14:42:42.956Z,20.09
2018-04-17T14:45:11.399Z,20.12
2018-04-17T14:47:39.109Z,20.21
2018-04-17T14:50:06.699Z,20.18
2018-04-17T14:52:34.310Z,20.19
2018-04-17T14:55:02.056Z,20.27
2018-04-17T14:57:29.731Z,20.28
2018-04-17T14:59:57.377Z,20.40
2018-04-17T15:02:25.016Z,20.41
2018-04-17T15:04:53.161Z,20.50
2018-04-17T15:07:20.816Z,20.51
2018-04-17T15:09:48.522Z,20.53
2018-04-17T15:12:16.127Z,20.57
2018-04-17T15:14:43.711Z,20.65
2018-04-17T15:17:11.467Z,20.63
2018-04-17T15:19:39.126Z,20.64
2018-04-17T15:22:06.724Z,20.59
2018-04-17T15:24:34.355Z,20.57
2018-04-17T15:27:01.959Z,20.53
2018-04-17T15:29:29.572Z,20.53
2018-04-17T15:31:57.204Z,20.51
2018-04-17T15:34:24.813Z,20.53
2018-04-17T15:36:52.408Z,20.52
2018-04-17T15:39:20.058Z,20.56
2018-04-17T15:41:47.696Z,20.54
2018-04-17T15:44:15.345Z,20.49
2018-04-17T15:46:43.060Z,20.45
2018-04-17T15:49:10.661Z,20.46
2018-04-17T15:51:38.263Z,20.45
2018-04-17T15:54:05.993Z,20.36
2018-04-17T15:56:33.636Z,20.32
2018-04-17T15:59:02.004Z,20.21
2018-04-17T16:01:29.767Z,20.13
2018-04-17T16:03:57.372Z,20.09
2018-04-17T16:06:24.966Z,20.07
2018-04-17T16:08:52.698Z,20.07
2018-04-17T16:11:20.284Z,20.07
2018-04-17T16:13:47.937Z,20.06
2018-04-17T16:16:16.255Z,20.04
2018-04-17T16:18:43.906Z,20.01
2018-04-17T16:21:11.506Z,19.94
2018-04-17T16:23:39.168Z,19.84
2018-04-17T16:26:06.776Z,19.75
2018-04-17T16:28:34.385Z,19.64
2018-04-17T16:31:02.335Z,19.56
2018-04-17T16:33:29.985Z,19.44
2018-04-17T16:35:57.629Z,19.33
2018-04-17T16:38:25.341Z,19.14
2018-04-17T16:40:53.035Z,19.03
2018-04-17T16:43:20.700Z,18.89
2018-04-17T16:45:48.453Z,18.79
2018-04-17T16:48:17.068Z,18.67
2018-04-17T16:50:44.653Z,18.53
2018-04-17T16:53:12.272Z,18.48
2018-04-17T16:55:40.543Z,18.37
2018-04-17T16:58:08.118Z,18.24
2018-04-17T17:00:35.867Z,18.13
2018-04-17T17:03:03.465Z,18.03
2018-04-17T17:05:31.116Z,17.95
2018-04-17T17:07:58.833Z,17.85
2018-04-17T17:10:26.477Z,17.75
2018-04-17T17:12:54.124Z,17.62
2018-04-17T17:15:21.840Z,17.50
2018-04-17T17:17:49.419Z,17.38
2018-04-17T17:20:17.014Z,17.27
2018-04-17T17:22:44.749Z,17.18
2018-04-17T17:25:12.438Z,17.08
2018-04-17T17:27:40.028Z,17.00
2018-04-17T17:30:07.832Z,16.91
2018-04-17T17:32:35.494Z,16.88
2018-04-17T17:35:03.063Z,16.82
2018-04-17T17:37:30.780Z,16.77
2018-04-17T17:39:58.364Z,16.72
2018-04-17T17:42:26.000Z,16.69
2018-04-17T17:44:53.627Z,16.64
2018-04-17T17:47:21.235Z,16.59
2018-04-17T17:49:49.073Z,16.56
2018-04-17T17:52:16.776Z,16.56
2018-04-17T17:54:44.417Z,16.52
2018-04-17T17:57:11.997Z,16.46
2018-04-17T17:59:39.673Z,16.43
2018-04-17T18:02:07.307Z,16.40
2018-04-17T18:04:34.916Z,16.39
2018-04-17T18:07:05.573Z,16.42
2018-04-17T18:09:33.225Z,16.41
2018-04-17T18:12:00.801Z,16.40
2018-04-17T18:14:28.456Z,16.34
2018-04-17T18:16:56.048Z,16.31
2018-04-17T18:19:23.620Z,16.26
2018-04-17T18:21:51.315Z,16.20
2018-04-17T18:24:18.976Z,16.13
2018-04-17T18:26:46.580Z,16.04
2018-04-17T18:29:14.340Z,15.99
2018-04-17T18:31:41.998Z,15.98
2018-04-17T18:34:09.608Z,15.99
2018-04-17T18:36:37.315Z,15.96
2018-04-17T18:39:05.029Z,15.93
2018-04-17T18:41:32.667Z,15.88
2018-04-17T18:44:00.304Z,15.83
2018-04-17T18:46:27.918Z,15.79
2018-04-17T18:48:55.531Z,15.77
2018-04-17T18:51:23.373Z,15.75
2018-04-17T18:53:51.021Z,15.75
2018-04-17T18:56:18.612Z,15.77
2018-04-17T18:58:46.264Z,15.80
2018-04-17T19:01:13.853Z,15.82
2018-04-17T19:03:41.443Z,15.83
2018-04-17T19:06:09.118Z,15.83
2018-04-17T19:08:36.813Z,15.83
2018-04-17T19:11:04.405Z,15.83
2018-04-17T19:13:32.048Z,15.87
2018-04-17T19:15:59.686Z,15.91
2018-04-17T19:18:27.325Z,15.95
2018-04-17T19:20:54.956Z,16.01
2018-04-17T19:23:22.531Z,16.06
2018-04-17T19:25:51.029Z,16.10
2018-04-17T19:28:19.788Z,16.14
2018-04-17T19:30:48.175Z,16.17
2018-04-17T19:33:15.836Z,16.18
2018-04-17T19:35:43.589Z,16.18
2018-04-17T19:38:11.257Z,16.13
2018-04-17T19:40:38.904Z,16.10
2018-04-17T19:43:06.571Z,16.11
2018-04-17T19:45:34.211Z,16.15
2018-04-17T19:48:02.348Z,16.19
2018-04-17T19:50:30.072Z,16.26
2018-04-17T19:52:58.427Z,16.31
2018-04-17T19:55:26.009Z,16.35
2018-04-17T19:57:53.651Z,16.39
2018-04-17T20:00:21.426Z,16.34
2018-04-17T20:02:49.068Z,16.31
2018-04-17T20:05:16.878Z,16.25
2018-04-17T20:07:45.356Z,16.18
2018-04-17T20:10:12.997Z,16.18
2018-04-17T20:12:40.645Z,16.24
2018-04-17T20:15:08.240Z,16.35
2018-04-17T20:17:35.819Z,16.38
2018-04-17T20:20:03.589Z,16.37
2018-04-17T20:22:31.223Z,16.37
2018-04-17T20:24:58.869Z,16.32
2018-04-17T20:27:26.560Z,16.25
2018-04-17T20:29:54.139Z,16.14
2018-04-17T20:32:21.724Z,16.10
2018-04-17T20:34:49.369Z,16.04
2018-04-17T20:37:16.985Z,15.94
2018-04-17T20:39:44.569Z,15.79
2018-04-17T20:42:12.530Z,15.68
2018-04-17T20:44:40.241Z,15.57
2018-04-17T20:47:07.892Z,15.41
2018-04-17T20:49:35.712Z,15.28
2018-04-17T20:52:03.363Z,15.16
2018-04-17T20:54:31.118Z,15.05
2018-04-17T20:56:58.796Z,15.01
2018-04-17T20:59:26.466Z,15.00
2018-04-17T21:01:54.086Z,15.00
2018-04-17T21:04:21.810Z,14.96
2018-04-17T21:06:49.403Z,14.86
2018-04-17T21:09:17.003Z,14.79
2018-04-17T21:11:44.645Z,14.67
2018-04-17T21:14:12.269Z,14.58
2018-04-17T21:16:39.857Z,14.46
2018-04-17T21:19:09.572Z,14.39
2018-04-17T21:21:37.228Z,14.34
2018-04-17T21:24:04.815Z,14.29
2018-04-17T21:26:32.589Z,14.25
2018-04-17T21:29:00.185Z,14.13
2018-04-17T21:31:27.866Z,14.10
2018-04-17T21:33:55.616Z,14.11
2018-04-17T21:36:23.184Z,14.09
2018-04-17T21:38:50.779Z,14.06
2018-04-17T21:41:18.454Z,14.04
2018-04-17T21:43:46.028Z,14.07
2018-04-17T21:46:13.600Z,14.05
2018-04-17T21:48:41.215Z,14.01
2018-04-17T21:51:08.856Z,13.98
2018-04-17T21:53:36.549Z,13.92
2018-04-17T21:56:04.395Z,13.84
2018-04-17T21:58:32.000Z,13.77
2018-04-17T22:00:59.571Z,13.71
2018-04-17T22:03:27.271Z,13.62
2018-04-17T22:05:54.859Z,13.56
2018-04-17T22:08:22.429Z,13.50
2018-04-17T22:10:50.160Z,13.42
2018-04-17T22:13:17.727Z,13.39
2018-04-17T22:15:45.381Z,13.39
2018-04-17T22:18:12.997Z,13.36
2018-04-17T22:20:40.608Z,13.36
2018-04-17T22:23:08.212Z,13.34
2018-04-17T22:25:35.951Z,13.36
2018-04-17T22:28:03.547Z,13.35
2018-04-17T22:30:31.120Z,13.38
2018-04-17T22:32:58.824Z,13.41
2018-04-17T22:35:26.466Z,13.40
2018-04-17T22:37:54.130Z,13.41
2018-04-17T22:40:21.859Z,13.40
2018-04-17T22:42:49.454Z,13.33
2018-04-17T22:45:17.056Z,13.31
2018-04-17T22:47:44.796Z,13.31
2018-04-17T22:50:12.457Z,13.33
2018-04-17T22:52:40.624Z,13.35
2018-04-17T22:55:08.284Z,13.37
2018-04-17T22:57:35.928Z,13.37
2018-04-17T23:00:03.581Z,13.36
2018-04-17T23:02:31.182Z,13.31
2018-04-17T23:04:58.747Z,13.22
2018-04-17T23:07:26.324Z,13.20
2018-04-17T23:09:54.033Z,13.17
2018-04-17T23:12:21.617Z,13.12
2018-04-17T23:14:49.190Z,13.12
2018-04-17T23:17:16.830Z,13.12
2018-04-17T23:19:44.457Z,13.20
2018-04-17T23:22:14.712Z,13.29
2018-04-17T23:24:42.420Z,13.30
2018-04-17T23:27:10.010Z,13.36
2018-04-17T23:29:37.600Z,13.43
2018-04-17T23:32:05.236Z,13.55
2018-04-17T23:34:32.815Z,13.61
2018-04-17T23:37:00.393Z,13.58
2018-04-17T23:39:28.129Z,13.53
2018-04-17T23:41:55.712Z,13.50
2018-04-17T23:44:23.292Z,13.44
2018-04-17T23:46:51.016Z,13.40
2018-04-17T23:49:18.645Z,13.35
2018-04-17T23:51:46.265Z,13.34
2018-04-17T23:54:13.891Z,13.30
2018-04-17T23:56:41.464Z,13.25
2018-04-17T23:59:09.111Z,13.18
